MROC/SJO METAR and TAF weather

Enter ICAO airport designator
Station Type Date Time Source
MROC METAR 2019/12/12 09:00 UTC NOAA

MROC 120900Z 10010KT 9999 FEW040 SCT250 21/16 A2996 NOSIG


Station Type Date Time Source
MROC Decoded METAR 2019/12/12 09:00 UTC NOAA

Juan Santamaria, Costa Rica (MROC) 10-00N 084-13W 939M
Dec 12, 2019 - 04:00 AM EST / 2019.12.12 0900 UTC
Wind: from the E (100 degrees) at 12 MPH (10 KT):0
Visibility: greater than 7 mile(s):0
Sky conditions: partly cloudy
Temperature: 69 F (21 C)
Dew Point: 60 F (16 C)
Relative Humidity: 73%
Pressure (altimeter): 29.96 in. Hg (1014 hPa)
ob: MROC 120900Z 10010KT 9999 FEW040 SCT250 21/16 A2996 NOSIG
cycle: 9

Station Type Date Time Source
MROC TAF 2019/12/12 06:03 UTC NOAA

TAF MROC 120500Z 1206/1306 10008KT 9999 FEW035 SCT250 TX28/1219Z TN19/1211Z

Example: see airport list